createdAt,value
2019-06-25T00:00:02.710Z,1013.2
2019-06-25T00:01:04.403Z,1013.2
2019-06-25T00:02:05.810Z,1013.2
2019-06-25T00:03:07.467Z,1013.2
2019-06-25T00:04:08.863Z,1013.2
2019-06-25T00:05:10.550Z,1013.1
2019-06-25T00:06:11.952Z,1013.1
2019-06-25T00:07:13.638Z,1013.1
2019-06-25T00:08:15.037Z,1013.1
2019-06-25T00:09:16.435Z,1013.1
2019-06-25T00:10:17.976Z,1013.1
2019-06-25T00:11:19.374Z,1013.1
2019-06-25T00:12:20.781Z,1013.1
2019-06-25T00:13:22.280Z,1013.1
2019-06-25T00:14:23.677Z,1013.1
2019-06-25T00:15:25.360Z,1013.1
2019-06-25T00:16:26.765Z,1013.2
2019-06-25T00:17:28.448Z,1013.1
2019-06-25T00:18:29.852Z,1013.1
2019-06-25T00:19:31.533Z,1013.1
2019-06-25T00:20:32.934Z,1013.2
2019-06-25T00:21:34.619Z,1013.1
2019-06-25T00:22:36.018Z,1013.1
2019-06-25T00:23:37.705Z,1013.1
2019-06-25T00:24:39.108Z,1013.1
2019-06-25T00:25:40.791Z,1013.1
2019-06-25T00:26:42.194Z,1013.1
2019-06-25T00:27:43.878Z,1013.1
2019-06-25T00:28:45.274Z,1013.1
2019-06-25T00:29:55.742Z,1013.1
2019-06-25T00:30:48.199Z,1013.1
2019-06-25T00:31:49.600Z,1013.1
2019-06-25T00:32:51.003Z,1013.1
2019-06-25T00:33:52.524Z,1013.1
2019-06-25T00:34:53.921Z,1013.1
2019-06-25T00:35:55.323Z,1013.1
2019-06-25T00:36:56.841Z,1013.1
2019-06-25T00:37:58.241Z,1013.1
2019-06-25T00:38:59.643Z,1013.1
2019-06-25T00:40:01.171Z,1013.1
2019-06-25T00:41:02.601Z,1013.1
2019-06-25T00:42:04.249Z,1013.1
2019-06-25T00:43:05.646Z,1013.1
2019-06-25T00:44:07.426Z,1013.1
2019-06-25T00:45:08.829Z,1013.1
2019-06-25T00:46:10.420Z,1013.1
2019-06-25T00:47:11.823Z,1013.1
2019-06-25T00:48:13.505Z,1013.1
2019-06-25T00:49:14.906Z,1013.1
2019-06-25T00:50:16.305Z,1013.1
2019-06-25T00:51:17.834Z,1013.0
2019-06-25T00:52:19.237Z,1013.0
2019-06-25T00:53:20.639Z,1013.0
2019-06-25T00:54:22.156Z,1013.0
2019-06-25T00:55:23.548Z,1013.0
2019-06-25T00:56:24.952Z,1013.0
2019-06-25T00:57:26.475Z,1013.0
2019-06-25T00:58:27.869Z,1013.0
2019-06-25T00:59:29.275Z,1013.0
2019-06-25T01:00:30.794Z,1013.0
2019-06-25T01:01:32.197Z,1012.9
2019-06-25T01:02:33.600Z,1012.9
2019-06-25T01:03:35.119Z,1012.9
2019-06-25T01:04:36.511Z,1012.9
2019-06-25T01:05:37.950Z,1012.9
2019-06-25T01:06:39.433Z,1012.9
2019-06-25T01:07:40.867Z,1012.9
2019-06-25T01:08:42.268Z,1012.9
2019-06-25T01:09:43.768Z,1012.9
2019-06-25T01:10:45.157Z,1012.9
2019-06-25T01:11:46.639Z,1012.9
2019-06-25T01:12:48.040Z,1012.9
2019-06-25T01:13:49.726Z,1012.9
2019-06-25T01:14:51.126Z,1012.9
2019-06-25T01:15:52.530Z,1012.9
2019-06-25T01:16:54.046Z,1012.9
2019-06-25T01:17:55.452Z,1012.9
2019-06-25T01:18:56.842Z,1012.9
2019-06-25T01:19:58.366Z,1012.9
2019-06-25T01:20:59.775Z,1012.9
2019-06-25T01:22:01.210Z,1012.9
2019-06-25T01:23:02.689Z,1012.9
2019-06-25T01:24:04.089Z,1012.9
2019-06-25T01:25:05.490Z,1012.9
2019-06-25T01:26:07.017Z,1012.9
2019-06-25T01:27:08.410Z,1013.0
2019-06-25T01:28:09.829Z,1013.0
2019-06-25T01:29:11.354Z,1013.0
2019-06-25T01:30:25.293Z,1013.0
2019-06-25T01:31:14.212Z,1013.0
2019-06-25T01:32:15.615Z,1012.9
2019-06-25T01:33:17.297Z,1013.0
2019-06-25T01:34:18.695Z,1012.9
2019-06-25T01:35:20.093Z,1012.9
2019-06-25T01:36:21.619Z,1012.9
2019-06-25T01:37:23.030Z,1012.9
2019-06-25T01:38:24.429Z,1012.9
2019-06-25T01:39:25.940Z,1012.9
2019-06-25T01:40:27.345Z,1012.9
2019-06-25T01:41:28.744Z,1012.9
2019-06-25T01:42:30.260Z,1012.9
2019-06-25T01:43:31.674Z,1012.9
2019-06-25T01:44:33.072Z,1012.9
2019-06-25T01:45:34.587Z,1012.8
2019-06-25T01:46:35.985Z,1012.8
2019-06-25T01:47:37.382Z,1012.8
2019-06-25T01:48:38.915Z,1012.9
2019-06-25T01:49:40.312Z,1012.8
2019-06-25T01:50:41.716Z,1012.8
2019-06-25T01:51:43.226Z,1012.7
2019-06-25T01:52:44.638Z,1012.7
2019-06-25T01:53:46.032Z,1012.7
2019-06-25T01:54:47.547Z,1012.7
2019-06-25T01:55:48.945Z,1012.7
2019-06-25T01:56:50.340Z,1012.7
2019-06-25T01:57:51.868Z,1012.6
2019-06-25T01:58:53.307Z,1012.6
2019-06-25T01:59:54.673Z,1012.6
2019-06-25T02:00:56.190Z,1012.7
2019-06-25T02:01:57.594Z,1012.6
2019-06-25T02:02:59.001Z,1012.6
2019-06-25T02:04:00.511Z,1012.6
2019-06-25T02:05:01.911Z,1012.6
2019-06-25T02:06:03.345Z,1012.6
2019-06-25T02:07:04.835Z,1012.5
2019-06-25T02:08:06.267Z,1012.5
2019-06-25T02:09:07.922Z,1012.5
2019-06-25T02:10:09.318Z,1012.5
2019-06-25T02:11:11.826Z,1012.5
2019-06-25T02:12:13.228Z,1012.4
2019-06-25T02:13:14.905Z,1012.5
2019-06-25T02:14:16.311Z,1012.4
2019-06-25T02:15:17.724Z,1012.4
2019-06-25T02:16:19.230Z,1012.4
2019-06-25T02:17:20.636Z,1012.4
2019-06-25T02:18:22.079Z,1012.4
2019-06-25T02:19:23.552Z,1012.3
2019-06-25T02:20:24.958Z,1012.3
2019-06-25T02:21:26.357Z,1012.3
2019-06-25T02:22:27.875Z,1012.3
2019-06-25T02:23:29.273Z,1012.3
2019-06-25T02:24:30.752Z,1012.3
2019-06-25T02:25:32.152Z,1012.3
2019-06-25T02:26:33.640Z,1012.3
2019-06-25T02:27:35.034Z,1012.3
2019-06-25T02:28:36.515Z,1012.3
2019-06-25T02:29:37.923Z,1012.3
2019-06-25T02:30:39.316Z,1012.3
2019-06-25T02:31:40.842Z,1012.4
2019-06-25T02:32:42.256Z,1012.3
2019-06-25T02:33:43.648Z,1012.3
2019-06-25T02:34:45.158Z,1012.3
2019-06-25T02:35:46.563Z,1012.4
2019-06-25T02:36:47.961Z,1012.3
2019-06-25T02:37:49.482Z,1012.4
2019-06-25T02:38:50.885Z,1012.4
2019-06-25T02:39:52.287Z,1012.4
2019-06-25T02:40:53.798Z,1012.4
2019-06-25T02:41:55.220Z,1012.4
2019-06-25T02:42:56.686Z,1012.4
2019-06-25T02:43:58.084Z,1012.4
2019-06-25T02:44:59.561Z,1012.4
2019-06-25T02:46:00.961Z,1012.4
2019-06-25T02:47:02.442Z,1012.4
2019-06-25T02:48:03.844Z,1012.4
2019-06-25T02:49:05.324Z,1012.3
2019-06-25T02:50:06.727Z,1012.4
2019-06-25T02:51:08.128Z,1012.4
2019-06-25T02:52:09.649Z,1012.4
2019-06-25T02:53:11.046Z,1012.4
2019-06-25T02:54:12.450Z,1012.4
2019-06-25T02:55:13.968Z,1012.3
2019-06-25T02:56:15.401Z,1012.3
2019-06-25T02:57:17.053Z,1012.3
2019-06-25T02:58:18.461Z,1012.3
2019-06-25T02:59:19.935Z,1012.3
2019-06-25T03:00:21.334Z,1012.3
2019-06-25T03:01:29.492Z,1012.3
2019-06-25T03:02:24.213Z,1012.4
2019-06-25T03:03:25.697Z,1012.3
2019-06-25T03:04:27.098Z,1012.3
2019-06-25T03:05:28.502Z,1012.4
2019-06-25T03:06:30.018Z,1012.3
2019-06-25T03:07:31.419Z,1012.3
2019-06-25T03:08:32.820Z,1012.3
2019-06-25T03:09:34.343Z,1012.3
2019-06-25T03:10:35.747Z,1012.3
2019-06-25T03:11:37.151Z,1012.3
2019-06-25T03:12:38.676Z,1012.3
2019-06-25T03:13:40.077Z,1012.3
2019-06-25T03:14:41.475Z,1012.4
2019-06-25T03:15:42.990Z,1012.3
2019-06-25T03:16:44.383Z,1012.4
2019-06-25T03:17:45.784Z,1012.4
2019-06-25T03:18:47.303Z,1012.4
2019-06-25T03:19:48.719Z,1012.4
2019-06-25T03:20:50.108Z,1012.3
2019-06-25T03:21:51.633Z,1012.4
2019-06-25T03:22:53.033Z,1012.3
2019-06-25T03:23:54.438Z,1012.3
2019-06-25T03:24:56.056Z,1012.3
2019-06-25T03:25:57.320Z,1012.3
2019-06-25T03:26:58.721Z,1012.3
2019-06-25T03:28:00.268Z,1012.3
2019-06-25T03:29:01.681Z,1012.3
2019-06-25T03:30:03.223Z,1012.3
2019-06-25T03:31:04.592Z,1012.3
2019-06-25T03:32:09.951Z,1012.2
2019-06-25T03:33:07.369Z,1012.3
2019-06-25T03:34:08.911Z,1012.3
2019-06-25T03:35:10.314Z,1012.3
2019-06-25T03:36:11.713Z,1012.3
2019-06-25T03:37:13.237Z,1012.3
2019-06-25T03:38:14.637Z,1012.3
2019-06-25T03:39:16.115Z,1012.3
2019-06-25T03:40:17.521Z,1012.3
2019-06-25T03:41:18.927Z,1012.3
2019-06-25T03:42:20.434Z,1012.3
2019-06-25T03:43:21.839Z,1012.3
2019-06-25T03:44:23.242Z,1012.3
2019-06-25T03:45:24.761Z,1012.3
2019-06-25T03:46:26.160Z,1012.3
2019-06-25T03:47:27.569Z,1012.3
2019-06-25T03:48:29.081Z,1012.3
2019-06-25T03:49:30.487Z,1012.3
2019-06-25T03:50:31.961Z,1012.3
2019-06-25T03:51:33.371Z,1012.3
2019-06-25T03:52:35.049Z,1012.3
2019-06-25T03:53:36.455Z,1012.3
2019-06-25T03:54:38.135Z,1012.3
2019-06-25T03:55:39.540Z,1012.3
2019-06-25T03:56:40.938Z,1012.3
2019-06-25T03:57:42.451Z,1012.3
2019-06-25T03:58:43.853Z,1012.4
2019-06-25T03:59:45.267Z,1012.3
2019-06-25T04:00:46.786Z,1012.3
2019-06-25T04:01:48.194Z,1012.3
2019-06-25T04:02:49.603Z,1012.4
2019-06-25T04:03:51.095Z,1012.3
2019-06-25T04:04:52.504Z,1012.3
2019-06-25T04:05:53.902Z,1012.3
2019-06-25T04:06:55.416Z,1012.3
2019-06-25T04:07:56.824Z,1012.3
2019-06-25T04:08:58.297Z,1012.3
2019-06-25T04:09:59.707Z,1012.3
2019-06-25T04:11:01.184Z,1012.3
2019-06-25T04:12:02.586Z,1012.3
2019-06-25T04:13:03.991Z,1012.3
2019-06-25T04:14:05.503Z,1012.3
2019-06-25T04:15:06.907Z,1012.3
2019-06-25T04:16:08.316Z,1012.4
2019-06-25T04:17:09.823Z,1012.4
2019-06-25T04:18:11.225Z,1012.4
2019-06-25T04:19:12.626Z,1012.4
2019-06-25T04:20:14.144Z,1012.4
2019-06-25T04:21:15.548Z,1012.4
2019-06-25T04:22:17.003Z,1012.4
2019-06-25T04:23:18.467Z,1012.4
2019-06-25T04:24:19.874Z,1012.4
2019-06-25T04:25:21.384Z,1012.5
2019-06-25T04:26:22.782Z,1012.5
2019-06-25T04:27:24.235Z,1012.5
2019-06-25T04:28:25.689Z,1012.5
2019-06-25T04:29:27.108Z,1012.5
2019-06-25T04:30:28.524Z,1012.5
2019-06-25T04:31:29.996Z,1012.5
2019-06-25T04:32:33.738Z,1012.5
2019-06-25T04:33:32.868Z,1012.6
2019-06-25T04:34:34.275Z,1012.5
2019-06-25T04:35:35.749Z,1012.5
2019-06-25T04:36:37.158Z,1012.6
2019-06-25T04:37:38.566Z,1012.6
2019-06-25T04:38:40.073Z,1012.6
2019-06-25T04:39:41.477Z,1012.6
2019-06-25T04:40:42.887Z,1012.6
2019-06-25T04:41:44.399Z,1012.6
2019-06-25T04:42:45.804Z,1012.6
2019-06-25T04:43:47.274Z,1012.6
2019-06-25T04:44:48.680Z,1012.6
2019-06-25T04:45:50.163Z,1012.5
2019-06-25T04:46:51.571Z,1012.6
2019-06-25T04:47:52.979Z,1012.6
2019-06-25T04:48:54.487Z,1012.5
2019-06-25T04:49:55.901Z,1012.5
2019-06-25T04:50:57.310Z,1012.5
2019-06-25T04:51:58.799Z,1012.5
2019-06-25T04:53:00.205Z,1012.5
2019-06-25T04:54:01.678Z,1012.6
2019-06-25T04:55:03.089Z,1012.6
2019-06-25T04:56:04.563Z,1012.5
2019-06-25T04:57:05.974Z,1012.5
2019-06-25T04:58:07.389Z,1012.5
2019-06-25T04:59:08.883Z,1012.5
2019-06-25T05:00:10.304Z,1012.5
2019-06-25T05:01:11.694Z,1012.5
2019-06-25T05:02:13.206Z,1012.5
2019-06-25T05:03:14.607Z,1012.5
2019-06-25T05:04:16.084Z,1012.4
2019-06-25T05:05:17.516Z,1012.4
2019-06-25T05:06:18.981Z,1012.4
2019-06-25T05:07:20.390Z,1012.5
2019-06-25T05:08:21.790Z,1012.5
2019-06-25T05:09:23.347Z,1012.5
2019-06-25T05:10:24.737Z,1012.5
2019-06-25T05:11:26.148Z,1012.4
2019-06-25T05:12:27.607Z,1012.4
2019-06-25T05:13:29.018Z,1012.5
2019-06-25T05:14:30.430Z,1012.4
2019-06-25T05:15:31.927Z,1012.4
2019-06-25T05:16:33.330Z,1012.4
2019-06-25T05:17:34.738Z,1012.4
2019-06-25T05:18:36.250Z,1012.4
2019-06-25T05:19:37.651Z,1012.4
2019-06-25T05:20:39.130Z,1012.4
2019-06-25T05:21:40.546Z,1012.5
2019-06-25T05:22:42.013Z,1012.5
2019-06-25T05:23:43.414Z,1012.5
2019-06-25T05:24:44.892Z,1012.5
2019-06-25T05:25:46.295Z,1012.5
2019-06-25T05:26:47.775Z,1012.5
2019-06-25T05:27:49.184Z,1012.5
2019-06-25T05:28:50.658Z,1012.5
2019-06-25T05:29:52.067Z,1012.5
2019-06-25T05:30:53.536Z,1012.5
2019-06-25T05:31:54.943Z,1012.5
2019-06-25T05:33:05.490Z,1012.6
2019-06-25T05:33:57.789Z,1012.6
2019-06-25T05:34:59.300Z,1012.6
2019-06-25T05:36:00.704Z,1012.5
2019-06-25T05:37:02.180Z,1012.6
2019-06-25T05:38:03.589Z,1012.6
2019-06-25T05:39:05.058Z,1012.6
2019-06-25T05:40:06.501Z,1012.6
2019-06-25T05:41:07.908Z,1012.6
2019-06-25T05:42:09.317Z,1012.6
2019-06-25T05:43:10.831Z,1012.6
2019-06-25T05:44:12.223Z,1012.6
2019-06-25T05:45:13.631Z,1012.6
2019-06-25T05:46:15.145Z,1012.6
2019-06-25T05:47:16.550Z,1012.6
2019-06-25T05:48:18.011Z,1012.6
2019-06-25T05:49:19.364Z,1012.6
2019-06-25T05:50:20.771Z,1012.6
2019-06-25T05:51:22.180Z,1012.7
2019-06-25T05:52:23.686Z,1012.7
2019-06-25T05:53:25.096Z,1012.7
2019-06-25T05:54:26.612Z,1012.7
2019-06-25T05:55:28.014Z,1012.7
2019-06-25T05:56:29.445Z,1012.7
2019-06-25T05:57:30.848Z,1012.8
2019-06-25T05:58:32.266Z,1012.8
2019-06-25T05:59:36.916Z,1012.8
2019-06-25T06:00:35.136Z,1012.8
2019-06-25T06:01:36.550Z,1012.8
2019-06-25T06:02:37.987Z,1012.8
2019-06-25T06:03:39.395Z,1012.8
2019-06-25T06:04:40.873Z,1012.8
2019-06-25T06:05:42.276Z,1012.7
2019-06-25T06:06:43.750Z,1012.8
2019-06-25T06:07:45.158Z,1012.8
2019-06-25T06:08:46.629Z,1012.8
2019-06-25T06:09:48.038Z,1012.8
2019-06-25T06:10:49.511Z,1012.8
2019-06-25T06:11:50.920Z,1012.8
2019-06-25T06:12:52.392Z,1012.8
2019-06-25T06:13:53.800Z,1012.7
2019-06-25T06:14:55.276Z,1012.8
2019-06-25T06:15:56.695Z,1012.8
2019-06-25T06:16:58.175Z,1012.8
2019-06-25T06:17:59.579Z,1012.8
2019-06-25T06:19:00.989Z,1012.8
2019-06-25T06:20:02.506Z,1012.8
2019-06-25T06:21:03.911Z,1012.8
2019-06-25T06:22:05.318Z,1012.8
2019-06-25T06:23:06.796Z,1012.7
2019-06-25T06:24:08.215Z,1012.7
2019-06-25T06:25:09.678Z,1012.8
2019-06-25T06:26:17.817Z,1012.7
2019-06-25T06:27:12.557Z,1012.7
2019-06-25T06:28:13.969Z,1012.7
2019-06-25T06:29:15.381Z,1012.7
2019-06-25T06:30:16.878Z,1012.7
2019-06-25T06:31:18.529Z,1012.8
2019-06-25T06:32:19.677Z,1012.7
2019-06-25T06:33:35.678Z,1012.8
2019-06-25T06:34:22.474Z,1012.9
2019-06-25T06:35:23.984Z,1013.0
2019-06-25T06:36:26.051Z,1012.9
2019-06-25T06:37:27.475Z,1013.0
2019-06-25T06:38:28.891Z,1013.1
2019-06-25T06:39:30.292Z,1012.8
2019-06-25T06:40:31.801Z,1012.8
2019-06-25T06:41:33.208Z,1012.8
2019-06-25T06:42:34.627Z,1012.8
2019-06-25T06:43:36.117Z,1012.8
2019-06-25T06:44:37.532Z,1012.9
2019-06-25T06:45:38.936Z,1012.9
2019-06-25T06:46:40.440Z,1012.9
2019-06-25T06:47:41.849Z,1012.9
2019-06-25T06:48:43.255Z,1012.8
2019-06-25T06:49:44.764Z,1013.0
2019-06-25T06:50:46.175Z,1012.9
2019-06-25T06:51:47.583Z,1013.0
2019-06-25T06:52:49.085Z,1013.1
2019-06-25T06:53:50.496Z,1013.1
2019-06-25T06:54:51.910Z,1013.1
2019-06-25T06:55:53.405Z,1013.2
2019-06-25T06:56:54.816Z,1013.1
2019-06-25T06:57:56.221Z,1013.1
2019-06-25T06:58:57.777Z,1013.1
2019-06-25T06:59:59.134Z,1013.0
2019-06-25T07:01:00.547Z,1013.0
2019-06-25T07:02:02.046Z,1013.0
2019-06-25T07:03:03.451Z,1013.1
2019-06-25T07:04:04.897Z,1013.0
2019-06-25T07:05:06.372Z,1013.1
2019-06-25T07:06:07.785Z,1013.1
2019-06-25T07:07:09.252Z,1013.0
2019-06-25T07:08:10.668Z,1013.0
2019-06-25T07:09:12.127Z,1013.1
2019-06-25T07:10:13.533Z,1013.1
2019-06-25T07:11:15.012Z,1013.1
2019-06-25T07:12:16.418Z,1013.1
2019-06-25T07:13:17.903Z,1013.1
2019-06-25T07:14:19.298Z,1013.1
2019-06-25T07:15:20.718Z,1013.1
2019-06-25T07:16:22.222Z,1013.1
2019-06-25T07:17:23.620Z,1013.1
2019-06-25T07:18:25.033Z,1013.1
2019-06-25T07:19:26.547Z,1013.0
2019-06-25T07:20:33.528Z,1013.1
2019-06-25T07:21:29.328Z,1013.1
2019-06-25T07:22:30.753Z,1013.0
2019-06-25T07:23:32.175Z,1012.9
2019-06-25T07:24:33.572Z,1012.8
2019-06-25T07:25:35.077Z,1013.0
2019-06-25T07:26:36.489Z,1012.9
2019-06-25T07:27:40.549Z,1012.9
2019-06-25T07:28:39.330Z,1012.9
2019-06-25T07:29:40.746Z,1012.9
2019-06-25T07:30:42.175Z,1012.9
2019-06-25T07:31:43.711Z,1012.9
2019-06-25T07:32:45.023Z,1012.9
2019-06-25T07:33:46.500Z,1013.0
2019-06-25T07:34:47.910Z,1013.0
2019-06-25T07:35:49.539Z,1013.0
2019-06-25T07:36:50.767Z,1013.0
2019-06-25T07:37:52.259Z,1013.0
2019-06-25T07:38:53.741Z,1013.0
2019-06-25T07:39:55.091Z,1013.0
2019-06-25T07:40:56.596Z,1012.9
2019-06-25T07:41:58.007Z,1012.9
2019-06-25T07:42:59.415Z,1012.9
2019-06-25T07:44:01.042Z,1012.9
2019-06-25T07:45:02.611Z,1012.9
2019-06-25T07:46:03.752Z,1013.0
2019-06-25T07:47:05.123Z,1012.9
2019-06-25T07:48:06.540Z,1012.9
2019-06-25T07:49:07.953Z,1013.0
2019-06-25T07:50:09.444Z,1012.9
2019-06-25T07:51:10.859Z,1013.0
2019-06-25T07:52:12.325Z,1013.0
2019-06-25T07:53:13.737Z,1012.9
2019-06-25T07:54:15.205Z,1013.0
2019-06-25T07:55:16.620Z,1013.0
2019-06-25T07:56:18.085Z,1013.0
2019-06-25T07:57:19.497Z,1013.0
2019-06-25T07:58:22.735Z,1013.1
2019-06-25T07:59:22.475Z,1013.2
2019-06-25T08:00:23.926Z,1013.3
2019-06-25T08:01:25.446Z,1013.4
2019-06-25T08:02:26.931Z,1013.8
2019-06-25T08:03:28.904Z,1014.1
2019-06-25T08:04:29.843Z,1014.4
2019-06-25T08:05:31.260Z,1014.3
2019-06-25T08:06:32.672Z,1014.1
2019-06-25T08:07:34.177Z,1015.7
2019-06-25T08:08:35.591Z,1016.4
2019-06-25T08:09:37.010Z,1016.3
2019-06-25T08:10:40.995Z,1016.7
2019-06-25T08:11:39.851Z,1015.4
2019-06-25T08:12:41.343Z,1016.4
2019-06-25T08:13:42.755Z,1018.6
2019-06-25T08:14:46.271Z,1014.0
2019-06-25T08:15:47.683Z,1012.6
2019-06-25T08:16:49.151Z,1012.9
2019-06-25T08:17:50.561Z,1013.3
2019-06-25T08:18:52.027Z,1012.7
2019-06-25T08:19:53.434Z,1012.7
2019-06-25T08:20:54.855Z,1012.7
2019-06-25T08:21:56.364Z,1012.7
2019-06-25T08:22:57.782Z,1012.7
2019-06-25T08:23:59.188Z,1012.6
2019-06-25T08:25:00.660Z,1012.6
2019-06-25T08:26:02.117Z,1012.6
2019-06-25T08:27:03.549Z,1012.6
2019-06-25T08:28:04.993Z,1012.6
2019-06-25T08:29:06.399Z,1012.6
2019-06-25T08:30:07.815Z,1012.6
2019-06-25T08:31:09.313Z,1012.5
2019-06-25T08:32:10.867Z,1012.6
2019-06-25T08:33:12.282Z,1012.6
2019-06-25T08:34:13.793Z,1012.7
2019-06-25T08:35:15.203Z,1012.7
2019-06-25T08:36:16.616Z,1012.6
2019-06-25T08:37:18.055Z,1012.8
2019-06-25T08:38:19.465Z,1012.6
2019-06-25T08:39:20.983Z,1012.6
2019-06-25T08:40:22.348Z,1012.6
2019-06-25T08:41:23.767Z,1012.9
2019-06-25T08:42:25.266Z,1012.5
2019-06-25T08:43:29.568Z,1012.5
2019-06-25T08:44:28.185Z,1012.6
2019-06-25T08:45:29.489Z,1012.5
2019-06-25T08:46:30.904Z,1012.5
2019-06-25T08:47:32.318Z,1012.5
2019-06-25T08:48:33.838Z,1012.5
2019-06-25T08:49:35.213Z,1012.5
2019-06-25T08:50:36.668Z,1012.5
2019-06-25T08:51:38.120Z,1012.5
2019-06-25T08:52:39.575Z,1012.4
2019-06-25T08:53:41.102Z,1012.5
2019-06-25T08:54:42.514Z,1012.5
2019-06-25T08:55:43.928Z,1012.5
2019-06-25T08:56:45.462Z,1012.7
2019-06-25T08:57:46.867Z,1012.4
2019-06-25T08:58:48.274Z,1012.5
2019-06-25T08:59:49.747Z,1014.8
2019-06-25T09:00:51.345Z,1012.7
2019-06-25T09:01:52.774Z,1018.0
2019-06-25T09:02:54.285Z,1026.7
2019-06-25T09:03:55.782Z,1019.2
2019-06-25T09:04:58.793Z,1014.2
2019-06-25T09:05:58.716Z,1022.5
2019-06-25T09:07:00.138Z,1013.4
2019-06-25T09:08:01.549Z,1016.0
2019-06-25T09:09:03.101Z,1043.6
2019-06-25T09:10:04.510Z,1043.9
2019-06-25T09:11:05.925Z,1036.5
2019-06-25T09:12:07.434Z,1030.4
2019-06-25T09:13:08.885Z,1021.4
2019-06-25T09:14:10.302Z,1012.5
2019-06-25T09:15:11.770Z,1017.8
2019-06-25T09:16:13.174Z,1012.8
2019-06-25T09:17:14.628Z,1012.5
2019-06-25T09:18:16.098Z,1012.4
2019-06-25T09:19:17.507Z,1012.5
2019-06-25T09:20:18.921Z,1012.5
2019-06-25T09:21:20.456Z,1015.4
2019-06-25T09:22:21.864Z,1012.5
2019-06-25T09:23:23.274Z,1012.5
2019-06-25T09:24:24.727Z,1012.5
2019-06-25T09:25:26.142Z,1035.7
2019-06-25T09:26:27.599Z,1012.5
2019-06-25T09:27:29.048Z,1024.9
2019-06-25T09:28:30.459Z,1030.2
2019-06-25T09:29:31.868Z,1037.7
2019-06-25T09:30:36.739Z,1037.2
2019-06-25T09:31:34.767Z,1023.3
2019-06-25T09:32:36.182Z,1016.9
2019-06-25T09:33:37.698Z,1015.4
2019-06-25T09:34:39.155Z,1031.4
2019-06-25T09:35:40.593Z,1012.4
2019-06-25T09:36:42.116Z,1012.4
2019-06-25T09:37:43.613Z,1012.5
2019-06-25T09:38:44.964Z,1012.4
2019-06-25T09:39:46.466Z,1012.4
2019-06-25T09:40:47.853Z,1012.3
2019-06-25T09:41:49.277Z,1012.3
2019-06-25T09:42:50.902Z,1012.3
2019-06-25T09:44:00.079Z,1013.7
2019-06-25T09:44:53.743Z,1012.4
2019-06-25T09:45:55.182Z,1012.3
2019-06-25T09:46:56.595Z,1012.3
2019-06-25T09:47:58.192Z,1012.4
2019-06-25T09:48:59.607Z,1012.3
2019-06-25T09:50:01.053Z,1012.4
2019-06-25T09:51:02.495Z,1012.4
2019-06-25T09:52:03.894Z,1012.3
2019-06-25T09:53:05.382Z,1012.3
2019-06-25T09:54:06.835Z,1012.3
2019-06-25T09:55:08.234Z,1012.4
2019-06-25T09:56:09.692Z,1012.3
2019-06-25T09:57:11.102Z,1012.3
2019-06-25T09:58:12.574Z,1012.4
2019-06-25T09:59:13.983Z,1012.4
2019-06-25T10:00:15.453Z,1012.3
2019-06-25T10:01:25.830Z,1012.4
2019-06-25T10:02:18.453Z,1012.4
2019-06-25T10:03:19.670Z,1012.3
2019-06-25T10:04:21.083Z,1012.3
2019-06-25T10:05:31.678Z,1012.3
2019-06-25T10:06:23.900Z,1012.4
2019-06-25T10:07:25.364Z,1012.4
2019-06-25T10:08:26.771Z,1012.3
2019-06-25T10:09:28.187Z,1012.4
2019-06-25T10:10:29.651Z,1012.3
2019-06-25T10:11:31.067Z,1012.4
2019-06-25T10:12:32.533Z,1012.4
2019-06-25T10:13:33.938Z,1012.3
2019-06-25T10:14:35.412Z,1012.4
2019-06-25T10:15:36.824Z,1012.4
2019-06-25T10:16:38.289Z,1012.3
2019-06-25T10:17:39.706Z,1012.3
2019-06-25T10:18:44.810Z,1012.3
2019-06-25T10:19:42.559Z,1012.4
2019-06-25T10:20:44.055Z,1012.3
2019-06-25T10:21:45.500Z,1012.3
2019-06-25T10:22:46.946Z,1012.2
2019-06-25T10:23:48.364Z,1012.3
2019-06-25T10:24:49.817Z,1012.3
2019-06-25T10:25:51.225Z,1012.3
2019-06-25T10:26:52.644Z,1012.3
2019-06-25T10:27:54.140Z,1012.2
2019-06-25T10:28:55.553Z,1012.3
2019-06-25T10:29:56.971Z,1012.2
2019-06-25T10:30:58.463Z,1012.3
2019-06-25T10:31:59.868Z,1012.2
2019-06-25T10:33:01.278Z,1012.2
2019-06-25T10:34:02.785Z,1012.3
2019-06-25T10:35:04.200Z,1012.2
2019-06-25T10:36:05.635Z,1012.4
2019-06-25T10:37:07.102Z,1012.2
2019-06-25T10:38:08.508Z,1012.2
2019-06-25T10:39:09.983Z,1012.2
2019-06-25T10:40:11.399Z,1012.3
2019-06-25T10:41:12.868Z,1012.2
2019-06-25T10:42:14.296Z,1012.2
2019-06-25T10:43:15.859Z,1012.2
2019-06-25T10:44:17.284Z,1012.2
2019-06-25T10:45:18.728Z,1012.2
2019-06-25T10:46:20.139Z,1012.3
2019-06-25T10:47:21.625Z,1012.2
2019-06-25T10:48:26.344Z,1012.2
2019-06-25T10:49:24.541Z,1012.2
2019-06-25T10:50:25.943Z,1012.2
2019-06-25T10:51:27.460Z,1012.2
2019-06-25T10:52:28.740Z,1012.2
2019-06-25T10:53:30.255Z,1012.2
2019-06-25T10:54:31.663Z,1012.3
2019-06-25T10:55:33.138Z,1012.3
2019-06-25T10:56:34.550Z,1012.3
2019-06-25T10:57:36.013Z,1012.5
2019-06-25T10:58:37.492Z,1012.7
2019-06-25T10:59:39.059Z,1012.5
2019-06-25T11:00:40.471Z,1012.4
2019-06-25T11:01:41.982Z,1012.3
2019-06-25T11:02:43.392Z,1012.2
2019-06-25T11:03:45.917Z,1012.2
2019-06-25T11:04:47.324Z,1012.2
2019-06-25T11:06:03.459Z,1012.2
2019-06-25T11:07:01.630Z,1012.1
2019-06-25T11:07:51.516Z,1012.2
2019-06-25T11:08:52.988Z,1012.2
2019-06-25T11:09:54.397Z,1012.2
2019-06-25T11:10:55.806Z,1012.3
2019-06-25T11:11:57.315Z,1012.2
2019-06-25T11:12:58.721Z,1012.2
2019-06-25T11:14:08.439Z,1012.1
2019-06-25T11:15:01.908Z,1012.2
2019-06-25T11:16:03.197Z,1012.1
2019-06-25T11:17:04.662Z,1012.4
2019-06-25T11:18:08.884Z,1012.2
2019-06-25T11:19:07.491Z,1012.1
2019-06-25T11:20:08.902Z,1012.1
2019-06-25T11:21:10.335Z,1012.1
2019-06-25T11:22:11.816Z,1012.1
2019-06-25T11:23:13.229Z,1012.1
2019-06-25T11:24:14.632Z,1012.1
2019-06-25T11:25:16.183Z,1012.1
2019-06-25T11:26:23.345Z,1012.2
2019-06-25T11:27:19.511Z,1012.2
2019-06-25T11:28:20.966Z,1012.2
2019-06-25T11:29:22.377Z,1012.1
2019-06-25T11:30:23.775Z,1012.1
2019-06-25T11:31:25.290Z,1012.2
2019-06-25T11:32:26.757Z,1012.1
2019-06-25T11:33:28.146Z,1012.1
2019-06-25T11:34:29.611Z,1012.1
2019-06-25T11:35:31.026Z,1012.8
2019-06-25T11:36:32.488Z,1012.1
2019-06-25T11:37:33.898Z,1012.1
2019-06-25T11:38:35.372Z,1012.1
2019-06-25T11:39:36.789Z,1012.1
2019-06-25T11:40:38.256Z,1012.1
2019-06-25T11:41:39.860Z,1012.8
2019-06-25T11:42:41.351Z,1012.1
2019-06-25T11:43:44.692Z,1012.1
2019-06-25T11:44:44.223Z,1012.0
2019-06-25T11:45:45.631Z,1012.0
2019-06-25T11:46:47.116Z,1012.0
2019-06-25T11:47:48.523Z,1012.0
2019-06-25T11:48:50.803Z,1012.0
2019-06-25T11:49:52.235Z,1012.0
2019-06-25T11:50:53.682Z,1012.1
2019-06-25T11:51:55.133Z,1012.1
2019-06-25T11:52:56.750Z,1012.1
2019-06-25T11:53:58.227Z,1012.0
2019-06-25T11:54:59.757Z,1012.0
2019-06-25T11:56:01.295Z,1011.9
2019-06-25T11:57:02.733Z,1011.9
2019-06-25T11:58:04.268Z,1012.0
2019-06-25T11:59:06.006Z,1012.0
2019-06-25T12:00:07.502Z,1012.0
2019-06-25T12:01:08.908Z,1012.0
2019-06-25T12:02:10.347Z,1011.9
2019-06-25T12:03:11.797Z,1011.9
2019-06-25T12:04:13.212Z,1011.9
2019-06-25T12:05:14.612Z,1011.9
2019-06-25T12:06:29.424Z,1011.9
2019-06-25T12:07:17.507Z,1011.9
2019-06-25T12:08:18.915Z,1011.9
2019-06-25T12:09:20.645Z,1011.9
2019-06-25T12:10:22.074Z,1011.8
2019-06-25T12:11:23.514Z,1011.8
2019-06-25T12:12:24.927Z,1011.8
2019-06-25T12:13:26.327Z,1011.8
2019-06-25T12:14:29.167Z,1011.8
2019-06-25T12:15:30.404Z,1011.8
2019-06-25T12:16:31.822Z,1011.8
2019-06-25T12:17:33.288Z,1011.8
2019-06-25T12:18:34.725Z,1011.8
2019-06-25T12:19:47.881Z,1011.8
2019-06-25T12:20:37.500Z,1011.8
2019-06-25T12:21:38.909Z,1011.8
2019-06-25T12:22:40.317Z,1011.8
2019-06-25T12:23:41.828Z,1011.8
2019-06-25T12:24:43.242Z,1011.9
2019-06-25T12:25:44.651Z,1011.9
2019-06-25T12:26:46.142Z,1011.9
2019-06-25T12:27:47.595Z,1011.8
2019-06-25T12:28:48.959Z,1011.7
2019-06-25T12:29:50.471Z,1011.8
2019-06-25T12:30:51.893Z,1011.8
2019-06-25T12:31:53.372Z,1011.7
2019-06-25T12:32:54.752Z,1011.7
2019-06-25T12:33:56.227Z,1011.7
2019-06-25T12:34:59.330Z,1011.7
2019-06-25T12:35:59.109Z,1011.7
2019-06-25T12:37:08.995Z,1011.7
2019-06-25T12:38:02.030Z,1011.7
2019-06-25T12:39:05.348Z,1011.7
2019-06-25T12:40:06.759Z,1011.7
2019-06-25T12:41:10.913Z,1011.7
2019-06-25T12:42:12.398Z,1011.7
2019-06-25T12:43:13.809Z,1011.7
2019-06-25T12:44:15.827Z,1011.7
2019-06-25T12:45:17.147Z,1011.7
2019-06-25T12:46:18.518Z,1011.7